Flight Track Log - Related Links

Times and Time Zones

All times are in EDT time to prevent confusion due to time zone crossing. See the FRG3434 flight status page for this flight to view local times or setup timezone preferences in your user account.

Time Position Orientation Groundspeed Altitude Reporting Facility
EDT Latitude Longitude Course Direction KTS MPH feet Rate Location/Type
Thu 09:30:23 AM 42.2681 -83.5322 344° North 162 186 2,300  Level Cleveland Center
Thu 09:31:30 AM 42.2539 -83.6017 255° West 169 194 4,400 1,930 Climbing Cleveland Center
Thu 09:32:18 AM 42.2506 -83.6492 265° West 162 186 6,000 1,357 Climbing Cleveland Center
Thu 09:33:25 AM 42.2694 -83.7175 291° West 198 228 7,000 492 Climbing Cleveland Center
Thu 09:34:20 AM 42.2928 -83.7833 296° West 221 254 7,000 445 Level Cleveland Center
Thu 09:36:00 AM 42.3100 -83.8800 284° West  Level Estimated
Thu 09:38:35 AM 42.3883 -84.0806 284° West 180 207 9,300  Level Cleveland Center
Thu 09:39:35 AM 42.4094 -84.1408 295° West 174 200 9,900 350 Climbing Cleveland Center
Thu 09:40:35 AM 42.4300 -84.2094 292° West 179 206 10,000 600 Climbing Cleveland Center
Thu 09:41:35 AM 42.4278 -84.2825 268° West 192 221 11,100 1,200 Climbing Cleveland Center
Thu 09:42:35 AM 42.4511 -84.3347 301° West 179 206 12,400 1,200 Climbing Cleveland Center
Thu 09:43:35 AM 42.4744 -84.3867 301° West 166 191 13,500 1,200 Climbing Cleveland Center
Thu 09:44:15 AM 42.4933 -84.4228 305° West 166 191 14,400 1,118 Climbing Chicago Center
Thu 09:45:17 AM 42.5158 -84.4758 300° West 163 188 15,400 726 Climbing Chicago Center
Thu 09:46:19 AM 42.5397 -84.5317 300° West 169 194 15,900 290 Climbing Chicago Center
Thu 09:47:21 AM 42.5675 -84.5953 301° West 193 222 16,000 48 Climbing Chicago Center
Thu 09:48:23 AM 42.5956 -84.6619 300° West 203 234 16,000  Level Chicago Center
Thu 09:49:25 AM 42.6228 -84.7289 299° West 203 234 16,000  Level Chicago Center
Thu 09:50:27 AM 42.6572 -84.8075 301° West 203 234 16,000  Level Chicago Center
Thu 09:51:29 AM 42.6856 -84.8744 300° West 204 235 16,000 -48 Level Chicago Center
Thu 09:52:32 AM 42.7144 -84.9408 301° West 206 237 15,900  Descending Chicago Center
Thu 09:53:34 AM 42.7428 -85.0078 300° West 205 236 16,000 48 Climbing Chicago Center
Thu 09:54:36 AM 42.7650 -85.0803 293° West 209 241 16,000  Level Chicago Center
Thu 09:55:38 AM 42.7808 -85.1553 286° West 209 241 16,000  Level Chicago Center
Thu 09:56:40 AM 42.7992 -85.2450 286° West 206 237 16,000 -48 Level Chicago Center
Thu 09:57:42 AM 42.8142 -85.3186 286° West 204 235 15,900  Descending Chicago Center
Thu 09:58:44 AM 42.8294 -85.3931 286° West 203 234 16,000 48 Climbing Chicago Center
Thu 09:59:46 AM 42.8447 -85.4686 285° West 206 237 16,000  Level Chicago Center
Thu 10:00:48 AM 42.8608 -85.5444 286° West 208 239 16,000  Level Chicago Center
Thu 10:01:50 AM 42.8764 -85.6203 286° West 207 238 16,000 -48 Level Chicago Center
Thu 10:02:52 AM 42.8953 -85.7122 286° West 210 242 15,900 -48 Descending Chicago Center
Thu 10:03:54 AM 42.9108 -85.7903 285° West 212 244 15,900 48 Level Chicago Center
Thu 10:04:56 AM 42.9264 -85.8683 285° West 213 245 16,000 97 Climbing Chicago Center
Thu 10:05:58 AM 42.9419 -85.9478 285° West 213 245 16,100 48 Climbing Chicago Center
Thu 10:07:01 AM 42.9572 -86.0286 285° West 215 247 16,100  Level Chicago Center
Thu 10:08:03 AM 42.9750 -86.1069 287° West 213 245 16,100  Level Chicago Center
Thu 10:09:05 AM 42.9908 -86.1861 285° West 213 245 16,100  Level Chicago Center
Thu 10:10:07 AM 43.0061 -86.2658 285° West 215 247 16,100  Level Chicago Center
Thu 10:11:09 AM 43.0253 -86.3619 285° West 217 250 16,100  Level Chicago Center
Thu 10:12:11 AM 43.0403 -86.4411 285° West 217 250 16,100  Level Chicago Center
Thu 10:13:13 AM 43.0561 -86.5211 285° West 217 250 16,100  Level Chicago Center
Thu 10:14:15 AM 43.0714 -86.6008 285° West 217 250 16,100 -48 Level Chicago Center
Thu 10:15:17 AM 43.0869 -86.6811 285° West 217 250 16,000  Descending Chicago Center
Thu 10:16:19 AM 43.1033 -86.7608 286° West 220 253 16,100 48 Climbing Chicago Center
Thu 10:17:21 AM 43.1211 -86.8578 284° West 220 253 16,100 -484 Level Chicago Center
Thu 10:18:23 AM 43.1369 -86.9422 284° West 227 261 15,100 -1,152 Descending Chicago Center
Thu 10:19:26 AM 43.1536 -87.0386 283° West 257 296 13,700 -1,392 Descending Chicago Center
Thu 10:20:28 AM 43.1272 -87.1331 249° West 268 308 12,200 -1,355 Descending Chicago Center
Thu 10:21:30 AM 43.1075 -87.2203 253° West 245 282 10,900 -1,355 Descending Chicago Center
Thu 10:22:32 AM 43.0819 -87.3242 251° West 240 276 9,400 -1,306 Descending Chicago Center
Thu 10:23:34 AM 43.0600 -87.4186 252° West 247 284 8,200 -1,161 Descending Chicago Center
Thu 10:24:36 AM 43.0392 -87.5081 252° West 246 283 7,000 -1,258 Descending Chicago Center
Thu 10:25:38 AM 43.0169 -87.5972 251° West 248 285 5,600 -1,403 Descending Chicago Center
Thu 10:26:40 AM 42.9947 -87.6875 251° West 249 287 4,100 -1,500 Descending Chicago Center
Thu 10:27:42 AM 42.9808 -87.7756 258° West 242 278 2,500 -1,210 Descending Chicago Center
Thu 10:28:44 AM 42.9683 -87.8378 255° West 183 211 1,600 -823 Descending Chicago Center
Thu 10:29:46 AM 42.9547 -87.8989 253° West 166 191 800 -774 Descending Chicago Center
Thu 10:31:00 AM 42.9469 -87.8971 236° Southwest  Level Estimated

Login

Don't have an account? Register now (free) for customized features, flight alerts, and more!